Terminal Aerodrome Forecast
Issued by NWS Omaha/Valley, NE

Home | Current Version | Previous Version | Graphics & Text | Print | Product List | Glossary On
Versions: 1 2 3 4 5 6 7 8 9 10 11 12 13 14 15 16
000
FTUS43 KOAX 271127
TAFOFK
TAF
KOFK 271127Z 2712/2812 08015G23KT 5SM -RA BR OVC007
      TEMPO 2713/2716 2SM RA
     FM271700 07015G25KT P6SM VCSH BKN007 OVC015
      TEMPO 2718/2720 5SM -TSRA BKN015CB
     FM280200 01010KT P6SM SHRA BKN008 OVC015=

USA.gov is the U.S. government's official web portal to all federal, state and local government web resources and services.